Time;durP1;ratioP1;P1;durP2;ratioP2;P2;SDS_P1;SDS_P2;PMS_P1;PMS_P2;Temp;Humidity;BMP_temperature;BMP_pressure;BME280_temperature;BME280_humidity;BME280_pressure;Samples;Min_cycle;Max_cycle;Signal;HPM_P1;HPM_P2
2021/12/30 00:00:17;;;;;;;45.27;7.80;;;10.20;99.90;;;;;;4958226;28;20211;-74
2021/12/30 00:02:44;;;;;;;40.53;7.47;;;10.20;99.90;;;;;;4958860;28;20215;-75
2021/12/30 00:05:13;;;;;;;41.17;8.10;;;10.20;99.90;;;;;;4958685;28;20262;-76
2021/12/30 00:07:41;;;;;;;53.37;8.90;;;10.20;99.90;;;;;;4957142;28;20239;-76
2021/12/30 00:10:09;;;;;;;43.73;8.73;;;10.20;99.90;;;;;;4953461;28;20634;-76
2021/12/30 00:12:37;;;;;;;43.63;9.10;;;10.10;99.90;;;;;;4951080;28;20684;-75
2021/12/30 00:15:07;;;;;;;43.77;8.90;;;10.10;99.90;;;;;;4952038;29;20219;-76
2021/12/30 00:17:34;;;;;;;44.80;9.00;;;10.10;99.90;;;;;;4956226;28;20252;-75
2021/12/30 00:20:07;;;;;;;36.40;9.17;;;10.00;99.90;;;;;;4958905;28;20225;-76
2021/12/30 00:22:35;;;;;;;40.37;9.73;;;10.00;99.90;;;;;;4949221;28;20264;-76
2021/12/30 00:25:02;;;;;;;43.07;9.13;;;10.00;99.90;;;;;;4929944;29;20261;-77
2021/12/30 00:27:29;;;;;;;44.63;11.67;;;9.90;99.90;;;;;;4953747;28;20301;-75
2021/12/30 00:29:56;;;;;;;37.17;9.17;;;9.90;99.90;;;;;;4959133;28;20268;-76
2021/12/30 00:32:23;;;;;;;49.13;9.50;;;9.90;99.90;;;;;;4961730;28;20315;-75
2021/12/30 00:34:49;;;;;;;39.07;11.07;;;9.90;99.90;;;;;;4945815;29;20233;-75
2021/12/30 00:37:16;;;;;;;38.70;10.50;;;9.90;99.90;;;;;;4956347;28;20238;-75
2021/12/30 00:39:44;;;;;;;52.10;10.60;;;9.90;99.90;;;;;;4942076;28;20700;-76
2021/12/30 00:42:10;;;;;;;47.43;10.50;;;9.90;99.90;;;;;;4950751;28;20671;-75
2021/12/30 00:44:37;;;;;;;47.23;11.50;;;10.00;99.90;;;;;;4930063;28;20695;-76
2021/12/30 00:47:04;;;;;;;37.83;10.50;;;10.10;99.90;;;;;;4956650;28;20231;-76
2021/12/30 00:49:31;;;;;;;42.60;9.97;;;10.10;99.90;;;;;;4956684;28;20234;-75
2021/12/30 00:51:58;;;;;;;51.70;10.40;;;10.10;99.90;;;;;;4950105;28;20248;-76
2021/12/30 00:54:25;;;;;;;41.43;9.57;;;10.10;99.90;;;;;;4934996;29;20240;-75
2021/12/30 00:56:52;;;;;;;37.90;10.03;;;10.10;99.90;;;;;;4953524;28;20208;-76
2021/12/30 00:59:25;;;;;;;42.67;9.43;;;10.20;99.90;;;;;;4952031;28;20260;-75
2021/12/30 01:01:52;;;;;;;41.30;11.03;;;10.30;99.90;;;;;;4950712;28;20291;-75
2021/12/30 01:04:20;;;;;;;50.17;11.27;;;10.30;99.90;;;;;;4952609;28;20233;-76
2021/12/30 01:06:47;;;;;;;44.37;10.80;;;10.40;99.90;;;;;;4958197;28;20673;-75
2021/12/30 01:09:14;;;;;;;51.80;11.53;;;10.40;99.90;;;;;;4951748;28;20743;-77
2021/12/30 01:11:41;;;;;;;55.00;12.20;;;10.40;99.90;;;;;;4954085;28;20642;-74
2021/12/30 01:14:18;;;;;;;45.57;11.67;;;10.50;99.90;;;;;;4956519;28;20267;-75
2021/12/30 01:16:49;;;;;;;49.50;11.13;;;10.60;99.90;;;;;;4963146;28;20213;-74
2021/12/30 01:22:02;;;;;;;49.63;11.17;;;10.60;99.90;;;;;;4964846;28;20216;-75
2021/12/30 01:24:29;;;;;;;42.87;10.93;;;10.70;99.90;;;;;;4960015;28;20204;-76
2021/12/30 01:26:56;;;;;;;52.67;13.50;;;10.70;99.90;;;;;;4973382;28;20240;-76
2021/12/30 01:29:29;;;;;;;42.27;12.77;;;10.70;99.90;;;;;;4976284;28;20212;-77
2021/12/30 01:31:55;;;;;;;53.40;11.97;;;10.70;99.90;;;;;;4953505;28;20208;-76
2021/12/30 01:34:22;;;;;;;55.37;12.67;;;10.80;99.90;;;;;;4962775;28;20327;-77
2021/12/30 01:36:49;;;;;;;58.37;13.07;;;10.80;99.90;;;;;;4962706;28;20295;-76
2021/12/30 01:39:18;;;;;;;45.90;12.77;;;10.80;99.90;;;;;;4957554;28;20246;-75
2021/12/30 01:41:45;;;;;;;47.83;11.73;;;10.80;99.90;;;;;;4940053;28;20578;-74
2021/12/30 01:44:16;;;;;;;55.10;12.30;;;10.90;99.90;;;;;;4962642;28;20215;-76
2021/12/30 01:46:44;;;;;;;60.37;13.60;;;10.90;99.90;;;;;;4957138;28;20303;-75
2021/12/30 01:49:12;;;;;;;51.70;12.20;;;10.90;99.90;;;;;;4958536;28;20222;-75
2021/12/30 01:51:41;;;;;;;52.40;13.00;;;10.90;99.90;;;;;;4956333;28;20200;-75
2021/12/30 01:54:09;;;;;;;51.40;12.93;;;11.00;99.90;;;;;;4956909;28;20224;-77
2021/12/30 01:56:35;;;;;;;58.07;14.30;;;11.00;99.90;;;;;;4952933;28;20208;-76
2021/12/30 01:59:06;;;;;;;57.00;12.67;;;11.10;99.90;;;;;;4948264;29;20315;-75
2021/12/30 02:01:33;;;;;;;51.77;13.30;;;11.10;99.90;;;;;;4954284;28;20255;-76
2021/12/30 02:04:01;;;;;;;53.67;13.83;;;11.10;99.90;;;;;;4964659;28;20231;-75
2021/12/30 02:06:28;;;;;;;57.37;14.23;;;11.10;99.90;;;;;;4954796;28;20706;-76
2021/12/30 02:08:55;;;;;;;54.47;13.13;;;11.10;99.90;;;;;;4954610;28;20502;-76
2021/12/30 02:11:22;;;;;;;53.60;13.67;;;11.10;99.90;;;;;;4954512;28;20299;-76
2021/12/30 02:13:51;;;;;;;56.23;13.80;;;11.20;99.90;;;;;;4953886;28;20296;-74
2021/12/30 02:16:20;;;;;;;54.50;14.57;;;11.20;99.90;;;;;;4953262;28;20555;-75
2021/12/30 02:18:48;;;;;;;50.77;14.53;;;11.20;99.90;;;;;;4955375;28;20243;-75
2021/12/30 02:21:15;;;;;;;65.20;16.53;;;11.20;99.90;;;;;;4955282;28;20255;-76
2021/12/30 02:23:42;;;;;;;63.17;14.87;;;11.20;99.90;;;;;;4933783;29;20304;-76
2021/12/30 02:26:15;;;;;;;51.57;15.37;;;11.20;99.90;;;;;;4950471;28;20215;-75
2021/12/30 02:28:43;;;;;;;53.50;15.10;;;11.30;99.90;;;;;;4950933;28;20212;-76
2021/12/30 02:31:12;;;;;;;57.00;15.33;;;11.30;99.90;;;;;;4939958;28;20228;-75
2021/12/30 02:33:40;;;;;;;59.43;15.23;;;11.30;99.90;;;;;;4959724;28;20211;-76
2021/12/30 02:36:07;;;;;;;55.83;16.00;;;11.30;99.90;;;;;;4956813;28;20224;-75
2021/12/30 02:38:35;;;;;;;59.00;16.60;;;11.30;99.90;;;;;;4951591;28;20238;-77
2021/12/30 02:41:03;;;;;;;70.00;17.60;;;11.40;99.90;;;;;;4957107;28;20641;-77
2021/12/30 02:43:32;;;;;;;60.40;16.80;;;11.30;99.90;;;;;;4954480;28;20251;-75
2021/12/30 02:46:01;;;;;;;65.70;18.80;;;11.40;99.90;;;;;;4957244;28;20208;-75
2021/12/30 02:48:30;;;;;;;62.80;18.03;;;11.50;99.90;;;;;;4959355;28;20239;-76
2021/12/30 02:51:00;;;;;;;73.73;18.73;;;11.50;99.90;;;;;;4953646;28;20256;-75
2021/12/30 02:53:26;;;;;;;73.20;19.00;;;11.50;99.90;;;;;;4955857;28;20247;-75
2021/12/30 02:55:54;;;;;;;63.60;17.60;;;11.50;99.90;;;;;;4959049;28;20702;-74
2021/12/30 02:58:24;;;;;;;60.40;17.77;;;11.60;99.90;;;;;;4938316;29;20291;-76
2021/12/30 03:00:59;;;;;;;66.87;18.00;;;11.60;99.90;;;;;;4957438;28;20744;-75
2021/12/30 03:03:26;;;;;;;71.77;18.70;;;11.60;99.90;;;;;;4960376;28;20240;-75
2021/12/30 03:05:59;;;;;;;52.53;17.17;;;11.60;99.90;;;;;;4955559;28;20272;-75
2021/12/30 03:08:26;;;;;;;64.83;15.77;;;11.70;99.90;;;;;;4957876;28;20240;-75
2021/12/30 03:10:54;;;;;;;56.87;16.87;;;11.70;99.90;;;;;;4956790;28;20215;-75
2021/12/30 03:13:30;;;;;;;57.23;15.77;;;11.70;99.90;;;;;;4956892;28;20334;-76
2021/12/30 03:16:19;;;;;;;54.70;16.40;;;11.70;99.90;;;;;;4963635;28;20294;-76
2021/12/30 03:18:48;;;;;;;51.07;15.07;;;11.70;99.90;;;;;;4957345;28;20236;-74
2021/12/30 03:21:17;;;;;;;54.53;15.43;;;11.70;99.90;;;;;;4959979;28;20224;-75
2021/12/30 03:23:45;;;;;;;48.30;14.80;;;11.80;99.90;;;;;;4960735;28;20664;-75
2021/12/30 03:26:12;;;;;;;58.60;16.47;;;11.80;99.90;;;;;;4939979;28;20292;-75
2021/12/30 03:28:40;;;;;;;50.03;17.97;;;11.80;99.90;;;;;;4955675;28;20222;-75
2021/12/30 03:31:08;;;;;;;65.13;17.53;;;11.80;99.90;;;;;;4942548;28;20216;-76
2021/12/30 03:33:35;;;;;;;59.67;16.97;;;11.80;99.90;;;;;;4963150;28;20231;-76
2021/12/30 03:36:04;;;;;;;49.20;17.07;;;11.80;99.90;;;;;;4958746;28;20226;-76
2021/12/30 03:38:36;;;;;;;48.73;14.20;;;11.90;99.90;;;;;;4953289;28;20243;-75
2021/12/30 03:41:07;;;;;;;47.33;15.70;;;11.90;99.90;;;;;;4941330;28;20211;-75
2021/12/30 03:43:35;;;;;;;55.97;15.40;;;11.90;99.90;;;;;;4952691;29;20323;-75
2021/12/30 03:46:04;;;;;;;43.33;13.63;;;11.90;99.90;;;;;;4964215;28;20207;-76
2021/12/30 03:48:33;;;;;;;45.93;14.90;;;12.00;99.90;;;;;;4961235;28;20307;-75
2021/12/30 03:51:05;;;;;;;45.87;14.47;;;12.00;99.90;;;;;;4956602;28;20324;-75
2021/12/30 03:53:38;;;;;;;46.10;13.83;;;12.00;99.90;;;;;;4955672;28;20222;-75
2021/12/30 03:56:06;;;;;;;44.03;13.60;;;12.00;99.90;;;;;;4952317;28;20213;-76
2021/12/30 03:58:33;;;;;;;42.47;12.60;;;12.00;99.90;;;;;;4952806;28;20319;-75
2021/12/30 04:01:00;;;;;;;42.10;11.90;;;12.10;99.90;;;;;;4961198;28;20289;-76
2021/12/30 04:03:27;;;;;;;34.87;12.67;;;12.10;99.90;;;;;;4957083;28;20303;-77
2021/12/30 04:05:55;;;;;;;39.17;12.27;;;12.10;99.90;;;;;;4956294;28;20228;-76
2021/12/30 04:08:22;;;;;;;36.53;12.33;;;12.10;99.90;;;;;;4954048;28;20244;-75
2021/12/30 04:10:49;;;;;;;36.03;12.57;;;12.20;99.90;;;;;;4938091;28;20208;-76
2021/12/30 04:13:16;;;;;;;33.03;12.17;;;12.20;99.90;;;;;;4956666;28;20355;-75
2021/12/30 04:15:43;;;;;;;34.87;11.97;;;12.30;99.90;;;;;;4958740;28;20247;-76
2021/12/30 04:18:10;;;;;;;38.83;12.20;;;12.20;99.90;;;;;;4957012;28;20232;-76
2021/12/30 04:20:37;;;;;;;37.60;12.60;;;12.30;99.90;;;;;;4957675;28;20231;-75
2021/12/30 04:23:04;;;;;;;40.07;13.60;;;12.30;99.90;;;;;;4959468;28;20209;-76
2021/12/30 04:25:31;;;;;;;47.20;15.23;;;12.20;99.90;;;;;;4954262;28;20231;-76
2021/12/30 04:27:58;;;;;;;41.80;14.97;;;12.30;99.90;;;;;;4956893;28;20219;-76
2021/12/30 04:30:26;;;;;;;38.07;13.27;;;12.30;99.90;;;;;;4954414;28;20215;-76
2021/12/30 04:32:53;;;;;;;47.93;16.13;;;12.30;99.90;;;;;;4959270;28;20208;-76
2021/12/30 04:35:20;;;;;;;44.00;14.40;;;12.30;99.90;;;;;;4954446;28;20677;-75
2021/12/30 04:37:47;;;;;;;44.90;15.73;;;12.30;99.90;;;;;;4957546;28;20259;-75
2021/12/30 04:40:14;;;;;;;45.83;15.30;;;12.40;99.90;;;;;;4962857;28;20238;-76
2021/12/30 04:42:42;;;;;;;50.40;16.80;;;12.40;99.90;;;;;;4966473;28;20209;-76
2021/12/30 04:45:11;;;;;;;46.10;17.00;;;12.40;99.90;;;;;;4968008;28;20212;-76
2021/12/30 04:47:39;;;;;;;46.47;16.93;;;12.40;99.90;;;;;;4971118;28;20891;-76
2021/12/30 04:50:11;;;;;;;48.73;17.40;;;12.40;99.90;;;;;;4967631;28;20706;-75
2021/12/30 04:52:39;;;;;;;51.17;16.77;;;12.50;99.90;;;;;;4965746;28;20212;-76
2021/12/30 04:55:07;;;;;;;51.10;18.00;;;12.40;99.90;;;;;;4943963;29;20360;-76
2021/12/30 04:57:34;;;;;;;44.43;16.37;;;12.50;99.90;;;;;;4960429;28;20219;-76
2021/12/30 05:00:06;;;;;;;51.93;16.57;;;12.50;99.90;;;;;;4942505;28;20246;-75
2021/12/30 05:02:48;;;;;;;45.37;15.60;;;12.50;99.90;;;;;;4960176;28;20971;-76
2021/12/30 05:05:15;;;;;;;38.50;14.17;;;12.50;99.90;;;;;;4954563;28;20335;-75
2021/12/30 05:07:41;;;;;;;35.63;13.43;;;12.50;99.90;;;;;;4951944;28;20215;-76
2021/12/30 05:10:08;;;;;;;31.87;12.37;;;12.50;99.90;;;;;;4941834;28;20243;-76
2021/12/30 05:12:35;;;;;;;31.53;11.80;;;12.50;99.90;;;;;;4951700;28;20247;-76
2021/12/30 05:15:06;;;;;;;26.63;10.63;;;12.50;99.90;;;;;;4937470;28;20295;-75
2021/12/30 05:17:34;;;;;;;26.17;10.70;;;12.60;99.90;;;;;;4956038;28;20249;-75
2021/12/30 05:20:02;;;;;;;24.80;9.80;;;12.60;99.90;;;;;;4956715;28;21108;-75
2021/12/30 05:22:29;;;;;;;25.67;9.87;;;12.60;99.90;;;;;;4959044;28;20235;-75
2021/12/30 05:24:56;;;;;;;26.43;10.20;;;12.60;99.90;;;;;;4954852;28;20221;-76
2021/12/30 05:27:23;;;;;;;23.80;9.03;;;12.60;99.90;;;;;;4951950;28;20639;-75
2021/12/30 05:29:49;;;;;;;20.67;8.63;;;12.60;99.90;;;;;;4939474;28;20660;-74
2021/12/30 05:32:16;;;;;;;23.07;9.43;;;12.60;99.90;;;;;;4958277;28;20219;-76
2021/12/30 05:34:43;;;;;;;21.80;9.07;;;12.60;99.90;;;;;;4938618;29;20267;-75
2021/12/30 05:37:10;;;;;;;24.40;9.10;;;12.60;99.90;;;;;;4956080;28;20244;-75
2021/12/30 05:39:41;;;;;;;23.80;9.50;;;12.60;99.90;;;;;;4952010;28;20223;-75
2021/12/30 05:42:08;;;;;;;19.60;7.60;;;12.60;99.90;;;;;;4951570;28;20209;-76
2021/12/30 05:44:35;;;;;;;18.87;7.77;;;12.60;99.90;;;;;;4955572;28;20212;-76
2021/12/30 05:47:02;;;;;;;16.70;7.87;;;12.60;99.90;;;;;;4956242;28;20726;-76
2021/12/30 05:49:29;;;;;;;15.10;6.00;;;12.60;99.90;;;;;;4941368;28;20216;-75
2021/12/30 05:51:56;;;;;;;14.27;6.30;;;12.70;99.90;;;;;;4952733;28;20247;-76
2021/12/30 05:54:23;;;;;;;13.23;5.33;;;12.70;99.90;;;;;;4951973;28;20218;-77
2021/12/30 05:56:52;;;;;;;11.33;5.00;;;12.70;99.90;;;;;;4952234;28;20211;-76
2021/12/30 05:59:18;;;;;;;8.17;4.10;;;12.70;99.90;;;;;;4953782;28;20658;-76
2021/12/30 06:01:46;;;;;;;7.50;3.63;;;12.70;99.90;;;;;;4941550;28;20285;-76
2021/12/30 06:04:13;;;;;;;5.97;3.27;;;12.70;99.90;;;;;;4952607;28;20311;-76
2021/12/30 06:06:40;;;;;;;4.47;2.80;;;12.70;99.90;;;;;;4961266;28;20214;-75
2021/12/30 06:09:07;;;;;;;3.83;2.30;;;12.70;99.90;;;;;;4952637;28;20310;-76
2021/12/30 06:11:33;;;;;;;2.77;1.90;;;12.70;99.90;;;;;;4957000;28;20601;-75
2021/12/30 06:14:00;;;;;;;1.90;1.53;;;12.70;99.90;;;;;;4954836;28;20649;-76
2021/12/30 06:16:27;;;;;;;2.90;1.80;;;12.70;99.90;;;;;;4956929;28;20197;-76
2021/12/30 06:18:54;;;;;;;1.90;1.43;;;12.60;99.90;;;;;;4962289;28;20728;-75
2021/12/30 06:21:20;;;;;;;1.73;1.40;;;12.60;99.90;;;;;;4955192;28;20213;-76
2021/12/30 06:23:47;;;;;;;2.57;1.60;;;12.60;99.90;;;;;;4956136;28;20267;-77
2021/12/30 06:26:14;;;;;;;3.30;1.40;;;12.60;99.90;;;;;;4957554;28;20586;-77
2021/12/30 06:28:41;;;;;;;3.00;1.80;;;12.60;99.90;;;;;;4953897;29;20295;-76
2021/12/30 06:31:07;;;;;;;3.10;1.73;;;12.50;99.90;;;;;;4961801;28;20256;-77
2021/12/30 06:33:39;;;;;;;4.70;1.83;;;12.60;99.90;;;;;;4959249;28;20235;-77
2021/12/30 06:36:06;;;;;;;6.13;2.20;;;12.60;99.90;;;;;;4968395;28;20279;-78
2021/12/30 06:38:34;;;;;;;8.00;2.60;;;12.60;99.90;;;;;;4954872;28;20265;-75
2021/12/30 06:41:02;;;;;;;7.33;2.70;;;12.60;99.90;;;;;;4961444;28;20593;-75
2021/12/30 06:43:29;;;;;;;8.00;3.37;;;12.60;99.90;;;;;;4957365;28;20219;-76
2021/12/30 06:45:56;;;;;;;9.63;3.50;;;12.60;99.90;;;;;;4958208;28;20735;-76
2021/12/30 06:48:26;;;;;;;10.37;3.37;;;12.60;99.90;;;;;;4948253;29;20208;-76
2021/12/30 06:50:53;;;;;;;11.63;3.70;;;12.60;99.90;;;;;;4963400;28;20220;-76
2021/12/30 06:53:22;;;;;;;8.60;3.20;;;12.60;99.90;;;;;;4954040;28;20200;-76
2021/12/30 06:55:50;;;;;;;11.43;3.70;;;12.70;99.90;;;;;;4961163;28;20218;-76
2021/12/30 06:58:19;;;;;;;9.73;3.60;;;12.70;99.90;;;;;;4953926;28;20244;-77
2021/12/30 07:00:48;;;;;;;11.50;4.07;;;12.70;99.90;;;;;;4957744;28;20307;-76
2021/12/30 07:03:15;;;;;;;9.27;3.57;;;12.70;99.90;;;;;;4958601;28;20211;-76
2021/12/30 07:05:42;;;;;;;10.77;4.40;;;12.70;99.90;;;;;;4957467;28;20212;-76
2021/12/30 07:08:08;;;;;;;11.03;4.50;;;12.70;99.90;;;;;;4954159;28;20259;-77
2021/12/30 07:10:35;;;;;;;10.60;4.73;;;12.70;99.90;;;;;;4956708;28;20204;-78
2021/12/30 07:13:04;;;;;;;8.97;4.13;;;12.70;99.90;;;;;;4954451;28;20217;-78
2021/12/30 07:15:31;;;;;;;9.77;4.13;;;12.70;99.90;;;;;;4957020;28;20300;-77
2021/12/30 07:17:58;;;;;;;11.30;4.73;;;12.70;99.90;;;;;;4958521;28;20244;-76
2021/12/30 07:20:24;;;;;;;8.93;4.80;;;12.70;99.90;;;;;;4959172;28;20323;-76
2021/12/30 07:22:51;;;;;;;11.60;4.57;;;12.60;99.90;;;;;;4954049;29;20315;-77
2021/12/30 07:25:18;;;;;;;11.37;4.90;;;12.70;99.90;;;;;;4953776;28;20308;-77
2021/12/30 07:27:47;;;;;;;11.23;5.07;;;12.70;99.90;;;;;;4945809;28;20208;-77
2021/12/30 07:30:15;;;;;;;12.30;4.80;;;12.70;99.90;;;;;;4953902;28;20302;-77
2021/12/30 07:32:42;;;;;;;13.43;5.67;;;12.70;99.90;;;;;;4959092;28;20213;-76
2021/12/30 07:35:09;;;;;;;10.63;4.83;;;12.70;99.90;;;;;;4945544;29;20282;-78
2021/12/30 07:37:35;;;;;;;17.63;6.00;;;12.80;99.90;;;;;;4961662;29;20315;-78
2021/12/30 07:40:07;;;;;;;14.17;7.20;;;12.80;99.90;;;;;;4951720;28;20620;-77
2021/12/30 07:42:34;;;;;;;15.10;6.70;;;12.70;99.90;;;;;;4961182;28;20232;-78
2021/12/30 07:45:06;;;;;;;14.47;7.17;;;12.70;99.90;;;;;;4967571;28;20645;-78
2021/12/30 07:47:33;;;;;;;19.40;7.30;;;12.70;99.90;;;;;;4963799;28;20208;-77
2021/12/30 07:49:59;;;;;;;16.30;6.60;;;12.70;99.90;;;;;;4952298;28;20315;-78
2021/12/30 07:52:26;;;;;;;15.47;6.97;;;12.80;99.90;;;;;;4951555;28;21618;-77
2021/12/30 07:54:53;;;;;;;18.83;7.13;;;12.70;99.90;;;;;;4954509;28;20645;-77
2021/12/30 07:57:22;;;;;;;19.90;6.70;;;12.70;99.90;;;;;;4955109;28;20300;-77
2021/12/30 07:59:50;;;;;;;14.33;6.50;;;12.70;99.90;;;;;;4952126;28;20696;-78
2021/12/30 08:02:18;;;;;;;14.37;5.93;;;12.70;99.90;;;;;;4942585;28;20211;-77
2021/12/30 08:04:46;;;;;;;12.23;5.03;;;12.70;99.90;;;;;;4948173;28;20749;-77
2021/12/30 08:07:15;;;;;;;13.30;5.60;;;12.70;99.90;;;;;;4954315;28;20213;-77
2021/12/30 08:09:42;;;;;;;13.73;5.47;;;12.70;99.90;;;;;;4954552;28;20210;-77
2021/12/30 08:12:09;;;;;;;8.97;4.57;;;12.70;99.90;;;;;;4955501;28;20208;-78
2021/12/30 08:14:36;;;;;;;10.57;4.47;;;12.70;99.90;;;;;;4954282;28;20262;-75
2021/12/30 08:17:06;;;;;;;11.73;5.43;;;12.70;99.90;;;;;;4953337;28;20212;-78
2021/12/30 08:19:33;;;;;;;13.67;5.80;;;12.80;99.90;;;;;;4916646;29;20690;-78
2021/12/30 08:22:01;;;;;;;14.83;6.33;;;12.80;99.90;;;;;;4933571;29;20282;-79
2021/12/30 08:24:29;;;;;;;13.27;6.30;;;12.80;99.90;;;;;;4937044;29;20220;-77
2021/12/30 08:27:12;;;;;;;14.50;5.93;;;12.80;99.90;;;;;;4935532;29;20205;-78
2021/12/30 08:29:40;;;;;;;17.47;6.20;;;12.80;99.90;;;;;;4920407;29;20213;-78
2021/12/30 08:32:08;;;;;;;23.70;7.80;;;12.80;99.90;;;;;;4922461;29;20232;-77
2021/12/30 08:34:35;;;;;;;21.00;8.03;;;12.80;99.90;;;;;;4933744;29;20566;-78
2021/12/30 08:37:02;;;;;;;21.60;8.63;;;12.90;99.90;;;;;;4932069;29;20252;-78
2021/12/30 08:39:30;;;;;;;22.93;8.77;;;12.80;99.90;;;;;;4933727;29;20634;-77
2021/12/30 08:42:01;;;;;;;26.53;10.37;;;12.90;99.90;;;;;;4938360;29;20213;-77
2021/12/30 08:44:28;;;;;;;28.47;10.97;;;12.90;99.90;;;;;;4932613;29;20304;-77
2021/12/30 08:46:55;;;;;;;31.13;11.23;;;12.90;99.90;;;;;;4933073;29;20201;-78
2021/12/30 08:49:23;;;;;;;28.70;11.10;;;12.90;99.90;;;;;;4931230;29;20217;-78
2021/12/30 08:51:50;;;;;;;26.00;12.20;;;12.90;99.90;;;;;;4931587;29;20655;-77
2021/12/30 08:54:17;;;;;;;27.10;11.43;;;12.90;99.90;;;;;;4932914;29;20211;-77
2021/12/30 08:56:43;;;;;;;28.97;11.53;;;12.90;99.90;;;;;;4931931;29;20206;-78
2021/12/30 08:59:13;;;;;;;26.37;11.37;;;12.90;99.90;;;;;;4930839;29;20264;-78
2021/12/30 09:01:40;;;;;;;28.97;11.13;;;13.00;99.90;;;;;;4917879;29;20249;-77
2021/12/30 09:04:07;;;;;;;24.60;10.90;;;13.00;99.90;;;;;;4937555;29;20623;-77
2021/12/30 09:06:34;;;;;;;22.07;10.53;;;13.00;99.90;;;;;;4936080;29;20244;-77
2021/12/30 09:09:02;;;;;;;22.13;10.43;;;13.10;99.90;;;;;;4934457;29;20201;-77
2021/12/30 09:11:31;;;;;;;19.93;9.60;;;13.10;99.90;;;;;;4932663;29;20680;-77
2021/12/30 09:13:58;;;;;;;21.10;10.40;;;13.10;99.90;;;;;;4935519;29;20641;-77
2021/12/30 09:16:24;;;;;;;21.23;9.67;;;13.10;99.90;;;;;;4933501;28;20296;-77
2021/12/30 09:18:51;;;;;;;23.83;9.37;;;13.20;99.90;;;;;;4946359;28;20243;-77
2021/12/30 09:21:18;;;;;;;21.60;8.57;;;13.20;99.90;;;;;;4954415;28;20235;-78
2021/12/30 09:23:45;;;;;;;21.43;8.87;;;13.20;99.90;;;;;;4934869;29;20390;-76
2021/12/30 09:26:11;;;;;;;18.30;8.17;;;13.20;99.90;;;;;;4948068;28;20216;-77
2021/12/30 09:28:38;;;;;;;20.47;8.20;;;13.30;99.90;;;;;;4949734;28;20197;-77
2021/12/30 09:31:05;;;;;;;21.10;8.17;;;13.30;99.90;;;;;;4947765;28;20264;-77
2021/12/30 09:33:32;;;;;;;21.70;7.87;;;13.30;99.90;;;;;;4947682;28;20228;-76
2021/12/30 09:36:02;;;;;;;20.77;6.93;;;13.30;99.90;;;;;;4933746;29;20224;-77
2021/12/30 09:38:29;;;;;;;25.70;7.93;;;13.30;99.90;;;;;;4933750;28;20200;-76
2021/12/30 09:40:56;;;;;;;20.50;7.87;;;13.30;99.90;;;;;;4951533;28;20242;-76
2021/12/30 09:43:23;;;;;;;21.97;7.73;;;13.40;99.90;;;;;;4951582;28;20235;-77
2021/12/30 09:45:50;;;;;;;23.63;7.63;;;13.30;99.90;;;;;;4948839;28;20279;-77
2021/12/30 09:48:18;;;;;;;20.50;7.63;;;13.30;99.90;;;;;;4936369;29;20197;-76
2021/12/30 09:50:51;;;;;;;13.77;6.90;;;13.40;99.90;;;;;;4951525;28;20217;-76
2021/12/30 09:53:20;;;;;;;22.90;7.77;;;13.40;99.90;;;;;;4953083;28;20300;-77
2021/12/30 09:55:47;;;;;;;18.47;8.33;;;13.40;99.90;;;;;;4933974;28;20230;-76
2021/12/30 09:58:14;;;;;;;24.63;7.63;;;13.50;99.90;;;;;;4952479;28;20288;-76
2021/12/30 10:00:42;;;;;;;20.63;8.43;;;13.50;99.90;;;;;;4952805;28;20968;-75
2021/12/30 10:03:09;;;;;;;20.23;8.60;;;13.60;99.90;;;;;;4952146;28;20662;-77
2021/12/30 10:05:39;;;;;;;23.70;8.47;;;13.50;99.90;;;;;;4950380;28;20228;-77
2021/12/30 10:08:19;;;;;;;18.27;8.60;;;13.60;99.90;;;;;;4950972;28;20303;-78
2021/12/30 10:10:52;;;;;;;21.80;9.57;;;13.60;99.90;;;;;;4949964;28;20204;-78
2021/12/30 10:13:22;;;;;;;14.57;7.80;;;13.60;99.90;;;;;;4950931;28;20220;-77
2021/12/30 10:16:04;;;;;;;17.53;8.47;;;13.70;99.90;;;;;;4967845;28;20232;-77
2021/12/30 10:18:50;;;;;;;21.33;8.63;;;13.70;99.90;;;;;;4950512;28;20274;-77
2021/12/30 10:21:40;;;;;;;20.27;8.97;;;13.70;99.90;;;;;;4948863;28;20700;-76
2021/12/30 10:24:10;;;;;;;18.83;7.83;;;13.70;99.90;;;;;;4953902;28;20204;-76
2021/12/30 10:26:53;;;;;;;22.97;9.70;;;13.70;99.90;;;;;;4953457;28;20275;-76
2021/12/30 10:29:20;;;;;;;21.57;7.73;;;13.70;99.90;;;;;;4948188;28;20287;-77
2021/12/30 10:31:48;;;;;;;11.83;7.10;;;13.80;99.90;;;;;;4967269;28;20585;-77
2021/12/30 10:34:16;;;;;;;16.53;6.80;;;13.70;99.90;;;;;;4955729;28;20228;-77
2021/12/30 10:36:46;;;;;;;19.87;7.20;;;13.90;99.90;;;;;;4954207;28;20307;-77
2021/12/30 10:39:17;;;;;;;12.87;7.30;;;13.80;99.90;;;;;;4955712;28;20211;-77
2021/12/30 10:41:46;;;;;;;15.43;6.40;;;13.90;99.90;;;;;;4950609;28;20231;-78
2021/12/30 10:44:13;;;;;;;15.73;6.60;;;13.90;99.90;;;;;;4949654;28;20549;-78
2021/12/30 10:46:40;;;;;;;17.53;7.20;;;13.90;99.90;;;;;;4935036;28;20239;-78
2021/12/30 10:49:19;;;;;;;14.70;6.17;;;13.90;99.90;;;;;;4959405;28;20224;-78
2021/12/30 10:51:49;;;;;;;14.77;6.13;;;13.90;99.90;;;;;;4950924;28;20369;-77
2021/12/30 10:54:30;;;;;;;15.33;5.97;;;13.90;99.90;;;;;;4955207;28;20581;-78
2021/12/30 10:57:00;;;;;;;15.27;6.10;;;14.00;99.90;;;;;;4950719;28;20201;-77
2021/12/30 10:59:39;;;;;;;12.87;5.67;;;14.00;99.90;;;;;;4950998;28;20224;-77
2021/12/30 11:02:09;;;;;;;14.57;5.40;;;14.10;99.90;;;;;;4947100;28;20249;-78
2021/12/30 11:04:48;;;;;;;15.53;6.33;;;14.10;99.90;;;;;;4969406;28;20229;-79
2021/12/30 11:07:43;;;;;;;16.20;6.93;;;14.10;99.90;;;;;;4952257;28;20203;-77
2021/12/30 11:10:11;;;;;;;18.27;7.17;;;14.10;99.90;;;;;;4934700;28;20715;-78
2021/12/30 11:12:44;;;;;;;19.70;5.50;;;14.00;99.90;;;;;;4961498;28;20638;-78
2021/12/30 11:15:25;;;;;;;15.63;5.37;;;14.00;99.90;;;;;;4953227;28;20220;-78
2021/12/30 11:18:16;;;;;;;16.27;5.30;;;14.00;99.90;;;;;;4957645;28;20283;-78
2021/12/30 11:20:46;;;;;;;9.93;5.47;;;14.10;99.90;;;;;;4942002;29;20323;-77
2021/12/30 11:23:15;;;;;;;12.87;5.73;;;14.00;99.90;;;;;;4959535;28;20694;-78
2021/12/30 11:25:43;;;;;;;18.70;6.10;;;13.90;99.90;;;;;;4954937;28;20736;-77
2021/12/30 11:28:10;;;;;;;16.17;5.70;;;14.00;99.90;;;;;;4960103;28;20201;-76
2021/12/30 11:30:37;;;;;;;14.20;5.80;;;13.80;99.90;;;;;;4953556;28;20216;-77
2021/12/30 11:33:04;;;;;;;15.60;5.80;;;13.90;99.90;;;;;;4960113;28;20294;-78
2021/12/30 11:35:31;;;;;;;19.03;6.30;;;13.90;99.90;;;;;;4953105;28;20232;-76
2021/12/30 11:37:59;;;;;;;15.53;5.60;;;13.90;99.90;;;;;;4954286;28;20716;-76
2021/12/30 11:40:27;;;;;;;15.57;4.77;;;13.90;99.90;;;;;;4951695;28;20228;-77
2021/12/30 11:43:07;;;;;;;15.67;4.93;;;13.90;99.90;;;;;;4952469;28;20598;-76
2021/12/30 11:45:40;;;;;;;16.03;5.10;;;13.90;99.90;;;;;;4950312;28;20639;-78
2021/12/30 11:48:29;;;;;;;18.70;5.87;;;13.90;99.90;;;;;;4952115;29;20215;-77
2021/12/30 11:51:06;;;;;;;17.17;5.27;;;13.90;99.90;;;;;;4952454;29;20229;-77
2021/12/30 11:53:33;;;;;;;14.63;5.57;;;13.90;99.90;;;;;;4935911;28;20280;-77
2021/12/30 11:56:05;;;;;;;15.47;5.80;;;13.90;99.90;;;;;;4946877;29;20220;-77
2021/12/30 11:58:40;;;;;;;17.13;5.40;;;13.90;99.90;;;;;;4952315;28;20252;-77
2021/12/30 12:01:13;;;;;;;10.90;5.00;;;13.90;99.90;;;;;;4951607;28;20243;-77
2021/12/30 12:03:43;;;;;;;14.27;5.30;;;13.90;99.90;;;;;;4942167;28;20216;-77
2021/12/30 12:06:42;;;;;;;18.50;5.77;;;13.80;99.90;;;;;;4951204;29;20239;-77
2021/12/30 12:09:33;;;;;;;13.13;5.50;;;13.80;99.90;;;;;;4958750;28;20207;-77
2021/12/30 12:12:14;;;;;;;14.70;6.50;;;13.90;99.90;;;;;;4953695;28;20247;-77
2021/12/30 12:14:46;;;;;;;11.60;5.80;;;13.80;99.90;;;;;;4939341;29;20204;-77
2021/12/30 12:17:27;;;;;;;16.57;5.87;;;13.80;99.90;;;;;;4961110;28;20200;-77
2021/12/30 12:19:55;;;;;;;15.50;6.23;;;13.80;99.90;;;;;;4972993;28;20608;-77
2021/12/30 12:22:22;;;;;;;11.13;5.40;;;13.80;99.90;;;;;;4942594;28;20295;-78
2021/12/30 12:25:04;;;;;;;14.47;5.80;;;13.80;99.90;;;;;;4954383;28;20328;-78
2021/12/30 12:27:34;;;;;;;14.47;6.13;;;13.90;99.90;;;;;;4940234;28;20220;-78
2021/12/30 12:30:04;;;;;;;14.87;7.13;;;13.80;99.90;;;;;;4953590;28;20216;-78
2021/12/30 12:32:30;;;;;;;20.73;6.47;;;13.80;99.90;;;;;;4941492;28;20205;-76
2021/12/30 12:34:59;;;;;;;12.83;6.23;;;13.80;99.90;;;;;;4945434;28;20220;-76
2021/12/30 12:37:32;;;;;;;16.13;5.87;;;13.80;99.90;;;;;;4975326;28;20624;-77
2021/12/30 12:40:23;;;;;;;16.70;7.57;;;13.80;99.90;;;;;;4951471;28;20274;-77
2021/12/30 12:42:53;;;;;;;20.93;6.50;;;13.80;99.90;;;;;;4959071;28;20283;-76
2021/12/30 12:45:20;;;;;;;17.30;6.43;;;13.70;99.90;;;;;;4956247;28;20675;-78